HAZ2910 ZYTL-ZSHC
Flight info
| Callsign | HAZ2910 |
|---|---|
| Flight time | N/A |
| Altitude | 34100 |
| Route | KARPI W5 TAO DCT URBAD W172 LATUX W108 MATNU W115 PINOT B221 SUPAR W505 DSH |
| Aircraft | A346/H-SDE2E3FGHIJ3J4J5M1RWXY/LB1D1 |
Departure
| Time | 2026-05-05 06:33 |
|---|---|
| Airport | Dalian Zhoushuizi International Airport (ZYTL) |
Arrival
| Time | N/A |
|---|---|
| Airport | Hangzhou Xiaoshan International Airport (ZSHC) |
| Time | Latitude | Longitude | Altitude | Speed | Heading |
|---|---|---|---|---|---|
| 2026-05-05 06:08 | 38.96168 | 121.53036 | 124 ft | 0 kts | 96° |
| 2026-05-05 06:19 | 38.96172 | 121.53009 | 124 ft | 4 kts | 108° |
| 2026-05-05 06:20 | 38.96183 | 121.52982 | 124 ft | 4 kts | 133° |
| 2026-05-05 06:20 | 38.96200 | 121.52966 | 124 ft | 4 kts | 163° |
| 2026-05-05 06:20 | 38.96222 | 121.52963 | 124 ft | 2 kts | 185° |
| 2026-05-05 06:20 | 38.96245 | 121.52966 | 124 ft | 4 kts | 186° |
| 2026-05-05 06:21 | 38.96272 | 121.52970 | 124 ft | 4 kts | 186° |
| 2026-05-05 06:21 | 38.96299 | 121.52974 | 124 ft | 4 kts | 187° |
| 2026-05-05 06:21 | 38.96326 | 121.52978 | 124 ft | 4 kts | 186° |
| 2026-05-05 06:21 | 38.96353 | 121.52981 | 124 ft | 4 kts | 184° |
| 2026-05-05 06:22 | 38.96379 | 121.52982 | 124 ft | 4 kts | 177° |
| 2026-05-05 06:22 | 38.96404 | 121.52978 | 124 ft | 4 kts | 162° |
| 2026-05-05 06:22 | 38.96422 | 121.52966 | 124 ft | 4 kts | 130° |
| 2026-05-05 06:22 | 38.96428 | 121.52949 | 124 ft | 4 kts | 96° |
| 2026-05-05 06:23 | 38.96431 | 121.52915 | 124 ft | 4 kts | 97° |
| 2026-05-05 06:23 | 38.96434 | 121.52880 | 124 ft | 4 kts | 96° |
| 2026-05-05 06:23 | 38.96435 | 121.52872 | 124 ft | 0 kts | 96° |
| 2026-05-05 06:27 | 38.96433 | 121.52899 | 124 ft | 9 kts | 96° |
| 2026-05-05 06:27 | 38.96425 | 121.52993 | 124 ft | 12 kts | 96° |
| 2026-05-05 06:28 | 38.96416 | 121.53109 | 124 ft | 14 kts | 96° |
| 2026-05-05 06:28 | 38.96416 | 121.53243 | 124 ft | 16 kts | 86° |
| 2026-05-05 06:28 | 38.96417 | 121.53399 | 124 ft | 19 kts | 96° |
| 2026-05-05 06:28 | 38.96402 | 121.53578 | 124 ft | 21 kts | 95° |
| 2026-05-05 06:29 | 38.96388 | 121.53775 | 124 ft | 23 kts | 95° |
| 2026-05-05 06:29 | 38.96372 | 121.53987 | 124 ft | 25 kts | 95° |
| 2026-05-05 06:29 | 38.96354 | 121.54222 | 124 ft | 26 kts | 95° |
| 2026-05-05 06:29 | 38.96336 | 121.54472 | 124 ft | 28 kts | 95° |
| 2026-05-05 06:30 | 38.96317 | 121.54722 | 124 ft | 28 kts | 95° |
| 2026-05-05 06:30 | 38.96283 | 121.54972 | 124 ft | 29 kts | 110° |
| 2026-05-05 06:30 | 38.96257 | 121.55200 | 124 ft | 25 kts | 96° |
| 2026-05-05 06:30 | 38.96238 | 121.55439 | 124 ft | 26 kts | 95° |
| 2026-05-05 06:31 | 38.96228 | 121.55652 | 124 ft | 18 kts | 73° |
| 2026-05-05 06:31 | 38.96306 | 121.55706 | 124 ft | 8 kts | 7° |
| 2026-05-05 06:31 | 38.96375 | 121.55709 | 124 ft | 11 kts | 350° |
| 2026-05-05 06:31 | 38.96419 | 121.55628 | 124 ft | 14 kts | 278° |
| 2026-05-05 06:32 | 38.96443 | 121.55347 | 124 ft | 63 kts | 276° |
| 2026-05-05 06:32 | 38.96508 | 121.54485 | 124 ft | 128 kts | 275° |
| 2026-05-05 06:32 | 38.96616 | 121.53085 | 136 ft | 179 kts | 275° |
| 2026-05-05 06:32 | 38.96745 | 121.51468 | 658 ft | 186 kts | 274° |
| 2026-05-05 06:33 | 38.96832 | 121.49811 | 1400 ft | 185 kts | 272° |
| 2026-05-05 06:33 | 38.96843 | 121.48162 | 2141 ft | 185 kts | 256° |
| 2026-05-05 06:33 | 38.96117 | 121.46857 | 2789 ft | 185 kts | 208° |
| 2026-05-05 06:33 | 38.94848 | 121.46455 | 3496 ft | 188 kts | 189° |
| 2026-05-05 06:34 | 38.93533 | 121.46198 | 4018 ft | 202 kts | 189° |
| 2026-05-05 06:34 | 38.92074 | 121.45865 | 4514 ft | 217 kts | 191° |
| 2026-05-05 06:34 | 38.90585 | 121.45472 | 5162 ft | 222 kts | 192° |
| 2026-05-05 06:34 | 38.89051 | 121.45033 | 5874 ft | 224 kts | 193° |
| 2026-05-05 06:35 | 38.87549 | 121.44584 | 6531 ft | 226 kts | 193° |
| 2026-05-05 06:35 | 38.86009 | 121.44113 | 7155 ft | 229 kts | 194° |
| 2026-05-05 06:35 | 38.84450 | 121.43632 | 7746 ft | 232 kts | 194° |
| 2026-05-05 06:35 | 38.82873 | 121.43144 | 8319 ft | 234 kts | 194° |
| 2026-05-05 06:36 | 38.81283 | 121.42652 | 8858 ft | 236 kts | 194° |
| 2026-05-05 06:36 | 38.79678 | 121.42155 | 9379 ft | 239 kts | 194° |
| 2026-05-05 06:36 | 38.78092 | 121.41492 | 9880 ft | 241 kts | 203° |
| 2026-05-05 06:36 | 38.76601 | 121.40448 | 10226 ft | 250 kts | 212° |
| 2026-05-05 06:37 | 38.75108 | 121.39200 | 10438 ft | 263 kts | 214° |
| 2026-05-05 06:37 | 38.73541 | 121.37843 | 10684 ft | 279 kts | 214° |
| 2026-05-05 06:37 | 38.71947 | 121.36465 | 10963 ft | 294 kts | 214° |
| 2026-05-05 06:37 | 38.70287 | 121.35040 | 11238 ft | 307 kts | 214° |
| 2026-05-05 06:38 | 38.68533 | 121.33543 | 11500 ft | 321 kts | 213° |
| 2026-05-05 06:38 | 38.66666 | 121.31956 | 11757 ft | 334 kts | 213° |
| 2026-05-05 06:38 | 38.64756 | 121.30336 | 11997 ft | 347 kts | 213° |
| 2026-05-05 06:38 | 38.62741 | 121.28631 | 12230 ft | 359 kts | 213° |
| 2026-05-05 06:39 | 38.60635 | 121.26849 | 12452 ft | 371 kts | 213° |
| 2026-05-05 06:39 | 38.58517 | 121.25058 | 12659 ft | 382 kts | 213° |
| 2026-05-05 06:39 | 38.56314 | 121.23111 | 12853 ft | 392 kts | 217° |
| 2026-05-05 06:39 | 38.54239 | 121.20809 | 13128 ft | 399 kts | 224° |
| 2026-05-05 06:40 | 38.52388 | 121.18180 | 13537 ft | 401 kts | 231° |
| 2026-05-05 06:40 | 38.50712 | 121.15385 | 13945 ft | 403 kts | 233° |
| 2026-05-05 06:40 | 38.49032 | 121.12498 | 14312 ft | 406 kts | 233° |
| 2026-05-05 06:40 | 38.47382 | 121.09653 | 14657 ft | 409 kts | 233° |
| 2026-05-05 06:41 | 38.45709 | 121.06780 | 14995 ft | 411 kts | 233° |
| 2026-05-05 06:41 | 38.44022 | 121.03895 | 15313 ft | 413 kts | 233° |
| 2026-05-05 06:41 | 38.42309 | 121.00975 | 15623 ft | 416 kts | 233° |
| 2026-05-05 06:41 | 38.40578 | 120.98033 | 15919 ft | 418 kts | 233° |
| 2026-05-05 06:42 | 38.38839 | 120.95081 | 16201 ft | 420 kts | 233° |
| 2026-05-05 06:42 | 38.37093 | 120.92121 | 16469 ft | 422 kts | 233° |
| 2026-05-05 06:42 | 38.35349 | 120.89169 | 16722 ft | 424 kts | 233° |
| 2026-05-05 06:42 | 38.33591 | 120.86196 | 16964 ft | 426 kts | 233° |
| 2026-05-05 06:43 | 38.31819 | 120.83203 | 17197 ft | 427 kts | 233° |
| 2026-05-05 06:43 | 38.30052 | 120.80220 | 17415 ft | 429 kts | 233° |
| 2026-05-05 06:43 | 38.28267 | 120.77210 | 17620 ft | 431 kts | 233° |
| 2026-05-05 06:43 | 38.26260 | 120.74097 | 17825 ft | 433 kts | 226° |
| 2026-05-05 06:44 | 38.24030 | 120.71547 | 18023 ft | 434 kts | 218° |
| 2026-05-05 06:44 | 38.21508 | 120.69468 | 18209 ft | 435 kts | 208° |
| 2026-05-05 06:44 | 38.18829 | 120.67748 | 18396 ft | 436 kts | 206° |
| 2026-05-05 06:44 | 38.16102 | 120.66094 | 18558 ft | 438 kts | 205° |
| 2026-05-05 06:45 | 38.13362 | 120.64439 | 18712 ft | 439 kts | 205° |
| 2026-05-05 06:45 | 38.10606 | 120.62755 | 18866 ft | 441 kts | 206° |
| 2026-05-05 06:45 | 38.07887 | 120.61077 | 19012 ft | 442 kts | 206° |
| 2026-05-05 06:45 | 38.05139 | 120.59397 | 19146 ft | 443 kts | 204° |
| 2026-05-05 06:46 | 38.02203 | 120.58016 | 19277 ft | 444 kts | 197° |
| 2026-05-05 06:46 | 37.99230 | 120.57139 | 19408 ft | 445 kts | 189° |
| 2026-05-05 06:46 | 37.96111 | 120.56714 | 19537 ft | 446 kts | 184° |
| 2026-05-05 06:46 | 37.93050 | 120.56480 | 19660 ft | 447 kts | 183° |
| 2026-05-05 06:47 | 37.89894 | 120.56274 | 19767 ft | 448 kts | 183° |
| 2026-05-05 06:47 | 37.86831 | 120.56071 | 19871 ft | 449 kts | 183° |
| 2026-05-05 06:47 | 37.83707 | 120.55853 | 19976 ft | 450 kts | 183° |
| 2026-05-05 06:47 | 37.80581 | 120.55627 | 20075 ft | 451 kts | 183° |
| 2026-05-05 06:48 | 37.77450 | 120.55395 | 20170 ft | 451 kts | 184° |
| 2026-05-05 06:48 | 37.74315 | 120.55161 | 20260 ft | 452 kts | 184° |
| 2026-05-05 06:48 | 37.71164 | 120.54924 | 20343 ft | 453 kts | 184° |
| 2026-05-05 06:48 | 37.68024 | 120.54688 | 20423 ft | 453 kts | 184° |
| 2026-05-05 06:49 | 37.64879 | 120.54391 | 20497 ft | 454 kts | 186° |
| 2026-05-05 06:49 | 37.61735 | 120.53931 | 20573 ft | 455 kts | 187° |
| 2026-05-05 06:49 | 37.58594 | 120.53455 | 20645 ft | 455 kts | 187° |
| 2026-05-05 06:49 | 37.55449 | 120.52980 | 20706 ft | 456 kts | 187° |
| 2026-05-05 06:50 | 37.52295 | 120.52505 | 20758 ft | 456 kts | 187° |
| 2026-05-05 06:50 | 37.49141 | 120.52032 | 20813 ft | 457 kts | 187° |
| 2026-05-05 06:50 | 37.45985 | 120.51559 | 20865 ft | 457 kts | 187° |
| 2026-05-05 06:50 | 37.42826 | 120.51087 | 20913 ft | 457 kts | 187° |
| 2026-05-05 06:51 | 37.39669 | 120.50616 | 20961 ft | 458 kts | 187° |
| 2026-05-05 06:51 | 37.36500 | 120.50144 | 21005 ft | 458 kts | 187° |
| 2026-05-05 06:51 | 37.33330 | 120.49672 | 21051 ft | 458 kts | 187° |
| 2026-05-05 06:51 | 37.30164 | 120.49201 | 21090 ft | 459 kts | 187° |
| 2026-05-05 06:52 | 37.26995 | 120.48730 | 21127 ft | 459 kts | 187° |
| 2026-05-05 06:52 | 37.23823 | 120.48259 | 21165 ft | 459 kts | 187° |
| 2026-05-05 06:52 | 37.20646 | 120.47788 | 21201 ft | 460 kts | 187° |
| 2026-05-05 06:52 | 37.17463 | 120.47316 | 21233 ft | 460 kts | 187° |
| 2026-05-05 06:53 | 37.14282 | 120.46845 | 21271 ft | 460 kts | 187° |
| 2026-05-05 06:53 | 37.11105 | 120.46375 | 21303 ft | 461 kts | 187° |
| 2026-05-05 06:53 | 37.07918 | 120.45904 | 21333 ft | 461 kts | 187° |
| 2026-05-05 06:53 | 37.04735 | 120.45434 | 21361 ft | 461 kts | 187° |
| 2026-05-05 06:54 | 37.01542 | 120.44962 | 21395 ft | 461 kts | 187° |
| 2026-05-05 06:54 | 36.98357 | 120.44493 | 21429 ft | 462 kts | 187° |
| 2026-05-05 06:54 | 36.95210 | 120.44029 | 21459 ft | 462 kts | 187° |
| 2026-05-05 06:54 | 36.91972 | 120.43553 | 21487 ft | 462 kts | 187° |
| 2026-05-05 06:55 | 36.88816 | 120.43089 | 21511 ft | 462 kts | 187° |
| 2026-05-05 06:55 | 36.85639 | 120.42622 | 21538 ft | 463 kts | 187° |
| 2026-05-05 06:55 | 36.82439 | 120.42152 | 21563 ft | 463 kts | 187° |
| 2026-05-05 06:55 | 36.79237 | 120.41683 | 21590 ft | 463 kts | 187° |
| 2026-05-05 06:56 | 36.76036 | 120.41214 | 21613 ft | 463 kts | 187° |
| 2026-05-05 06:56 | 36.72838 | 120.40746 | 21638 ft | 463 kts | 187° |
| 2026-05-05 06:56 | 36.69626 | 120.40277 | 21659 ft | 464 kts | 187° |
| 2026-05-05 06:56 | 36.66421 | 120.39810 | 21680 ft | 464 kts | 187° |
| 2026-05-05 06:57 | 36.63216 | 120.39343 | 21703 ft | 464 kts | 187° |
| 2026-05-05 06:57 | 36.60017 | 120.38877 | 21723 ft | 464 kts | 187° |
| 2026-05-05 06:57 | 36.56806 | 120.38409 | 21741 ft | 464 kts | 187° |
| 2026-05-05 06:57 | 36.53593 | 120.37991 | 21757 ft | 464 kts | 185° |
| 2026-05-05 06:58 | 36.50362 | 120.37766 | 21774 ft | 465 kts | 182° |
| 2026-05-05 06:58 | 36.47126 | 120.37647 | 21800 ft | 465 kts | 182° |
| 2026-05-05 06:58 | 36.43905 | 120.37536 | 21840 ft | 465 kts | 181° |
| 2026-05-05 06:58 | 36.40686 | 120.37435 | 21877 ft | 464 kts | 181° |
| 2026-05-05 06:59 | 36.37457 | 120.37342 | 21920 ft | 464 kts | 181° |
| 2026-05-05 06:59 | 36.34230 | 120.37258 | 21957 ft | 464 kts | 181° |
| 2026-05-05 06:59 | 36.31010 | 120.37184 | 21990 ft | 463 kts | 181° |
| 2026-05-05 06:59 | 36.27781 | 120.37119 | 22019 ft | 463 kts | 181° |
| 2026-05-05 07:00 | 36.24575 | 120.37063 | 22052 ft | 463 kts | 181° |
| 2026-05-05 07:00 | 36.21350 | 120.37016 | 22079 ft | 463 kts | 181° |
| 2026-05-05 07:00 | 36.19221 | 120.36990 | 22097 ft | 464 kts | 181° |
| 2026-05-05 07:00 | 36.15995 | 120.36957 | 22122 ft | 464 kts | 180° |
| 2026-05-05 07:01 | 36.12764 | 120.36933 | 22147 ft | 464 kts | 180° |
| 2026-05-05 07:01 | 36.09542 | 120.36916 | 22177 ft | 463 kts | 180° |
| 2026-05-05 07:01 | 36.05234 | 120.36906 | 22209 ft | 463 kts | 180° |
| 2026-05-05 07:01 | 36.03096 | 120.36906 | 22225 ft | 463 kts | 180° |
| 2026-05-05 07:02 | 35.99898 | 120.36913 | 22253 ft | 463 kts | 180° |
| 2026-05-05 07:02 | 35.96680 | 120.36927 | 22282 ft | 463 kts | 180° |
| 2026-05-05 07:02 | 35.93466 | 120.36948 | 22311 ft | 462 kts | 180° |
| 2026-05-05 07:02 | 35.90245 | 120.36977 | 22340 ft | 462 kts | 180° |
| 2026-05-05 07:03 | 35.87045 | 120.37013 | 22370 ft | 462 kts | 180° |
| 2026-05-05 07:03 | 35.83834 | 120.37057 | 22401 ft | 462 kts | 179° |
| 2026-05-05 07:03 | 35.80659 | 120.37107 | 22432 ft | 462 kts | 179° |
| 2026-05-05 07:03 | 35.77472 | 120.37166 | 22464 ft | 461 kts | 179° |
| 2026-05-05 07:04 | 35.74273 | 120.37232 | 22495 ft | 461 kts | 179° |
| 2026-05-05 07:04 | 35.71095 | 120.37306 | 22525 ft | 461 kts | 179° |
| 2026-05-05 07:04 | 35.67900 | 120.37387 | 22556 ft | 461 kts | 179° |
| 2026-05-05 07:04 | 35.64712 | 120.37476 | 22588 ft | 461 kts | 179° |
| 2026-05-05 07:05 | 35.61532 | 120.37572 | 22620 ft | 460 kts | 179° |
| 2026-05-05 07:05 | 35.58353 | 120.37676 | 22652 ft | 460 kts | 179° |
| 2026-05-05 07:05 | 35.55157 | 120.37787 | 22684 ft | 460 kts | 178° |
| 2026-05-05 07:05 | 35.51959 | 120.37907 | 22716 ft | 460 kts | 178° |
| 2026-05-05 07:06 | 35.48775 | 120.38033 | 22748 ft | 459 kts | 178° |
| 2026-05-05 07:06 | 35.45603 | 120.38167 | 22780 ft | 459 kts | 178° |
| 2026-05-05 07:06 | 35.42416 | 120.38308 | 22814 ft | 459 kts | 178° |
| 2026-05-05 07:06 | 35.39260 | 120.38456 | 22846 ft | 459 kts | 178° |
| 2026-05-05 07:07 | 35.36072 | 120.38613 | 22878 ft | 459 kts | 178° |
| 2026-05-05 07:07 | 35.32905 | 120.38777 | 22910 ft | 458 kts | 178° |
| 2026-05-05 07:07 | 35.29737 | 120.38948 | 22942 ft | 458 kts | 178° |
| 2026-05-05 07:07 | 35.26548 | 120.39127 | 22975 ft | 458 kts | 178° |
| 2026-05-05 07:08 | 35.23396 | 120.39312 | 23009 ft | 458 kts | 177° |
| 2026-05-05 07:08 | 35.20228 | 120.39506 | 23041 ft | 457 kts | 177° |
| 2026-05-05 07:08 | 35.17045 | 120.39708 | 23074 ft | 457 kts | 177° |
| 2026-05-05 07:08 | 35.13877 | 120.39917 | 23107 ft | 457 kts | 177° |
| 2026-05-05 07:09 | 35.10729 | 120.40131 | 23139 ft | 457 kts | 177° |
| 2026-05-05 07:09 | 35.07593 | 120.40353 | 23172 ft | 457 kts | 177° |
| 2026-05-05 07:09 | 35.04408 | 120.40586 | 23205 ft | 456 kts | 176° |
| 2026-05-05 07:09 | 35.01256 | 120.40824 | 23238 ft | 456 kts | 176° |
| 2026-05-05 07:10 | 34.98090 | 120.41070 | 23269 ft | 456 kts | 176° |
| 2026-05-05 07:10 | 34.94932 | 120.41324 | 23301 ft | 456 kts | 176° |
| 2026-05-05 07:10 | 34.91765 | 120.41587 | 23332 ft | 456 kts | 176° |
| 2026-05-05 07:10 | 34.88605 | 120.41857 | 23363 ft | 455 kts | 176° |
| 2026-05-05 07:11 | 34.85458 | 120.42134 | 23395 ft | 455 kts | 176° |
| 2026-05-05 07:11 | 34.82335 | 120.42417 | 23426 ft | 455 kts | 176° |
| 2026-05-05 07:11 | 34.79195 | 120.42709 | 23457 ft | 455 kts | 176° |
| 2026-05-05 07:11 | 34.76045 | 120.43011 | 23487 ft | 455 kts | 175° |
| 2026-05-05 07:12 | 34.72902 | 120.43320 | 23517 ft | 454 kts | 175° |
| 2026-05-05 07:12 | 34.69754 | 120.43638 | 23548 ft | 454 kts | 175° |
| 2026-05-05 07:12 | 34.66614 | 120.43964 | 23578 ft | 454 kts | 175° |
| 2026-05-05 07:12 | 34.63463 | 120.44300 | 23607 ft | 454 kts | 175° |
| 2026-05-05 07:13 | 34.60322 | 120.44644 | 23636 ft | 454 kts | 175° |
| 2026-05-05 07:13 | 34.57172 | 120.44998 | 23663 ft | 454 kts | 175° |
| 2026-05-05 07:13 | 34.54037 | 120.45359 | 23691 ft | 454 kts | 175° |
| 2026-05-05 07:13 | 34.50896 | 120.45729 | 23719 ft | 453 kts | 174° |
| 2026-05-05 07:14 | 34.47548 | 120.46133 | 23747 ft | 453 kts | 174° |
| 2026-05-05 07:14 | 34.44408 | 120.46520 | 23773 ft | 453 kts | 174° |
| 2026-05-05 07:14 | 34.41317 | 120.46909 | 23797 ft | 453 kts | 174° |
| 2026-05-05 07:14 | 34.38139 | 120.47317 | 23823 ft | 453 kts | 174° |
| 2026-05-05 07:15 | 34.35008 | 120.47726 | 23848 ft | 453 kts | 174° |
| 2026-05-05 07:15 | 34.31876 | 120.48143 | 23874 ft | 453 kts | 174° |
| 2026-05-05 07:15 | 34.28789 | 120.48562 | 23900 ft | 453 kts | 174° |
| 2026-05-05 07:15 | 34.25654 | 120.48994 | 23927 ft | 452 kts | 174° |
| 2026-05-05 07:16 | 34.22529 | 120.49432 | 23954 ft | 452 kts | 173° |
| 2026-05-05 07:16 | 34.19406 | 120.49878 | 23986 ft | 452 kts | 173° |
| 2026-05-05 07:16 | 34.16283 | 120.50331 | 24017 ft | 452 kts | 173° |
| 2026-05-05 07:16 | 34.13171 | 120.50790 | 24050 ft | 451 kts | 173° |
| 2026-05-05 07:17 | 34.10051 | 120.51258 | 24082 ft | 451 kts | 173° |
| 2026-05-05 07:17 | 34.06937 | 120.51732 | 24114 ft | 451 kts | 173° |
| 2026-05-05 07:17 | 34.03835 | 120.52212 | 24145 ft | 451 kts | 173° |
| 2026-05-05 07:17 | 34.00716 | 120.52702 | 24175 ft | 450 kts | 173° |
| 2026-05-05 07:18 | 33.97617 | 120.53196 | 24206 ft | 450 kts | 173° |
| 2026-05-05 07:18 | 33.94507 | 120.53700 | 24236 ft | 450 kts | 172° |
| 2026-05-05 07:18 | 33.91410 | 120.54209 | 24267 ft | 450 kts | 172° |
| 2026-05-05 07:18 | 33.88315 | 120.54725 | 24297 ft | 449 kts | 172° |
| 2026-05-05 07:19 | 33.85175 | 120.55257 | 24327 ft | 449 kts | 172° |
| 2026-05-05 07:19 | 33.82095 | 120.55785 | 24356 ft | 449 kts | 172° |
| 2026-05-05 07:19 | 33.79015 | 120.56321 | 24386 ft | 449 kts | 172° |
| 2026-05-05 07:19 | 33.75924 | 120.56896 | 24398 ft | 449 kts | 169° |
| 2026-05-05 07:20 | 33.72942 | 120.58027 | 24309 ft | 452 kts | 156° |
| 2026-05-05 07:20 | 33.70211 | 120.59913 | 24227 ft | 454 kts | 144° |
| 2026-05-05 07:20 | 33.67890 | 120.62432 | 24144 ft | 457 kts | 132° |
| 2026-05-05 07:20 | 33.66035 | 120.65520 | 24054 ft | 460 kts | 120° |
| 2026-05-05 07:21 | 33.64761 | 120.69001 | 23959 ft | 462 kts | 107° |
| 2026-05-05 07:21 | 33.64339 | 120.72790 | 23809 ft | 466 kts | 90° |
| 2026-05-05 07:21 | 33.64336 | 120.76607 | 23771 ft | 466 kts | 94° |
| 2026-05-05 07:21 | 33.63974 | 120.80450 | 23695 ft | 467 kts | 98° |
| 2026-05-05 07:22 | 33.63497 | 120.84292 | 23607 ft | 469 kts | 99° |
| 2026-05-05 07:22 | 33.63031 | 120.88138 | 23509 ft | 471 kts | 98° |
| 2026-05-05 07:22 | 33.62602 | 120.91992 | 23407 ft | 473 kts | 98° |
| 2026-05-05 07:22 | 33.62202 | 120.95878 | 23300 ft | 475 kts | 97° |
| 2026-05-05 07:23 | 33.61820 | 120.99799 | 23191 ft | 476 kts | 97° |
| 2026-05-05 07:23 | 33.61451 | 121.03730 | 23185 ft | 475 kts | 97° |
| 2026-05-05 07:23 | 33.61086 | 121.07689 | 23388 ft | 470 kts | 97° |
| 2026-05-05 07:23 | 33.60740 | 121.11469 | 23582 ft | 465 kts | 97° |
| 2026-05-05 07:24 | 33.60394 | 121.15250 | 23777 ft | 460 kts | 97° |
| 2026-05-05 07:24 | 33.60048 | 121.19036 | 23975 ft | 457 kts | 97° |
| 2026-05-05 07:24 | 33.59700 | 121.22823 | 24174 ft | 454 kts | 97° |
| 2026-05-05 07:24 | 33.59358 | 121.26535 | 24372 ft | 450 kts | 97° |
| 2026-05-05 07:25 | 33.59014 | 121.30260 | 24569 ft | 445 kts | 97° |
| 2026-05-05 07:25 | 33.58676 | 121.33914 | 24769 ft | 441 kts | 97° |
| 2026-05-05 07:25 | 33.58340 | 121.37535 | 24965 ft | 437 kts | 97° |
| 2026-05-05 07:25 | 33.58014 | 121.41049 | 25159 ft | 433 kts | 97° |
| 2026-05-05 07:26 | 33.57681 | 121.44626 | 25356 ft | 429 kts | 97° |
| 2026-05-05 07:26 | 33.57352 | 121.48170 | 25602 ft | 424 kts | 97° |
| 2026-05-05 07:26 | 33.57030 | 121.51629 | 25972 ft | 415 kts | 97° |
| 2026-05-05 07:26 | 33.56719 | 121.54982 | 26338 ft | 406 kts | 97° |
| 2026-05-05 07:27 | 33.56410 | 121.58307 | 26707 ft | 397 kts | 97° |
| 2026-05-05 07:27 | 33.56105 | 121.61575 | 27077 ft | 388 kts | 97° |
| 2026-05-05 07:27 | 33.55811 | 121.64710 | 27441 ft | 378 kts | 97° |
| 2026-05-05 07:27 | 33.55512 | 121.67854 | 27747 ft | 370 kts | 99° |
| 2026-05-05 07:28 | 33.54843 | 121.70738 | 27969 ft | 362 kts | 117° |
| 2026-05-05 07:28 | 33.53444 | 121.73135 | 28209 ft | 353 kts | 137° |
| 2026-05-05 07:28 | 33.51478 | 121.74813 | 28453 ft | 343 kts | 155° |
| 2026-05-05 07:28 | 33.49296 | 121.75922 | 28712 ft | 334 kts | 159° |
| 2026-05-05 07:29 | 33.47134 | 121.76931 | 28760 ft | 333 kts | 160° |
| 2026-05-05 07:29 | 33.42817 | 121.78949 | 28760 ft | 333 kts | 159° |
| 2026-05-05 07:30 | 33.38527 | 121.81002 | 28759 ft | 333 kts | 159° |
| 2026-05-05 07:30 | 33.32099 | 121.84114 | 28759 ft | 332 kts | 159° |
| 2026-05-05 07:31 | 33.27829 | 121.86188 | 28755 ft | 328 kts | 159° |
| 2026-05-05 07:31 | 33.23576 | 121.88253 | 28757 ft | 330 kts | 159° |
| 2026-05-05 07:32 | 33.19309 | 121.90323 | 28750 ft | 330 kts | 159° |
| 2026-05-05 07:32 | 33.15026 | 121.92398 | 28646 ft | 333 kts | 159° |
| 2026-05-05 07:33 | 33.12881 | 121.93438 | 28791 ft | 328 kts | 159° |
| 2026-05-05 07:33 | 33.10777 | 121.94456 | 28937 ft | 323 kts | 159° |
| 2026-05-05 07:33 | 33.09004 | 121.95314 | 29061 ft | 318 kts | 159° |
| 2026-05-05 07:33 | 33.06976 | 121.96296 | 29194 ft | 313 kts | 159° |
| 2026-05-05 07:34 | 33.02950 | 121.98242 | 29192 ft | 311 kts | 159° |
| 2026-05-05 07:34 | 32.98952 | 122.00173 | 29190 ft | 309 kts | 159° |
| 2026-05-05 07:35 | 32.94987 | 122.02085 | 29189 ft | 307 kts | 159° |
| 2026-05-05 07:35 | 32.91041 | 122.03986 | 29187 ft | 304 kts | 158° |
| 2026-05-05 07:36 | 32.89096 | 122.04933 | 29182 ft | 300 kts | 158° |
| 2026-05-05 07:36 | 32.87187 | 122.05869 | 29178 ft | 295 kts | 158° |
| 2026-05-05 07:36 | 32.85297 | 122.06790 | 29173 ft | 291 kts | 158° |
| 2026-05-05 07:36 | 32.83439 | 122.07692 | 29168 ft | 286 kts | 158° |
| 2026-05-05 07:37 | 32.81638 | 122.08562 | 29163 ft | 281 kts | 159° |
| 2026-05-05 07:37 | 32.79817 | 122.09437 | 29157 ft | 276 kts | 159° |
| 2026-05-05 07:37 | 32.78048 | 122.10286 | 29153 ft | 273 kts | 160° |
| 2026-05-05 07:37 | 32.76297 | 122.11110 | 29154 ft | 274 kts | 159° |